sensor_id;sensor_type;location;lat;lon;timestamp;temperature;humidity
30250;DHT22;17064;47.974;13.826;2023-07-29T00:02:39;16.60;99.90
30250;DHT22;17064;47.974;13.826;2023-07-29T00:07:40;16.60;99.90
30250;DHT22;17064;47.974;13.826;2023-07-29T00:12:40;16.50;99.90
30250;DHT22;17064;47.974;13.826;2023-07-29T00:17:41;16.50;99.90
30250;DHT22;17064;47.974;13.826;2023-07-29T00:22:42;16.50;99.90
30250;DHT22;17064;47.974;13.826;2023-07-29T00:27:42;16.40;99.90
30250;DHT22;17064;47.974;13.826;2023-07-29T00:32:43;16.40;99.90
30250;DHT22;17064;47.974;13.826;2023-07-29T00:37:44;16.40;99.90
30250;DHT22;17064;47.974;13.826;2023-07-29T00:42:44;16.30;99.90
30250;DHT22;17064;47.974;13.826;2023-07-29T00:47:45;16.40;99.90
30250;DHT22;17064;47.974;13.826;2023-07-29T00:52:46;16.30;99.90
30250;DHT22;17064;47.974;13.826;2023-07-29T00:57:48;16.30;99.90
30250;DHT22;17064;47.974;13.826;2023-07-29T01:02:50;16.40;99.90
30250;DHT22;17064;47.974;13.826;2023-07-29T01:08:31;16.30;99.90
30250;DHT22;17064;47.974;13.826;2023-07-29T01:13:41;16.20;99.90
30250;DHT22;17064;47.974;13.826;2023-07-29T01:18:46;16.10;99.90
30250;DHT22;17064;47.974;13.826;2023-07-29T01:23:51;16.10;99.90
30250;DHT22;17064;47.974;13.826;2023-07-29T01:28:52;16.10;99.90
30250;DHT22;17064;47.974;13.826;2023-07-29T01:34:23;16.00;99.90
30250;DHT22;17064;47.974;13.826;2023-07-29T01:39:27;16.00;99.90
30250;DHT22;17064;47.974;13.826;2023-07-29T01:44:29;15.90;99.90
30250;DHT22;17064;47.974;13.826;2023-07-29T01:49:30;15.90;99.90
30250;DHT22;17064;47.974;13.826;2023-07-29T01:54:31;15.90;99.90
30250;DHT22;17064;47.974;13.826;2023-07-29T01:59:31;15.90;99.90
30250;DHT22;17064;47.974;13.826;2023-07-29T02:04:32;15.90;99.90
30250;DHT22;17064;47.974;13.826;2023-07-29T02:09:33;15.90;99.90
30250;DHT22;17064;47.974;13.826;2023-07-29T02:14:34;16.00;99.90
30250;DHT22;17064;47.974;13.826;2023-07-29T02:19:35;16.00;99.90
30250;DHT22;17064;47.974;13.826;2023-07-29T02:24:35;16.00;99.90
30250;DHT22;17064;47.974;13.826;2023-07-29T02:29:36;16.00;99.90
30250;DHT22;17064;47.974;13.826;2023-07-29T02:34:37;15.90;99.90
30250;DHT22;17064;47.974;13.826;2023-07-29T02:39:37;15.90;99.90
30250;DHT22;17064;47.974;13.826;2023-07-29T02:44:39;15.90;99.90
30250;DHT22;17064;47.974;13.826;2023-07-29T02:49:40;15.90;99.90
30250;DHT22;17064;47.974;13.826;2023-07-29T02:54:41;15.90;99.90
30250;DHT22;17064;47.974;13.826;2023-07-29T02:59:41;15.90;99.90
30250;DHT22;17064;47.974;13.826;2023-07-29T03:04:42;15.90;99.90
30250;DHT22;17064;47.974;13.826;2023-07-29T03:09:43;15.90;99.90
30250;DHT22;17064;47.974;13.826;2023-07-29T03:14:47;15.80;99.90
30250;DHT22;17064;47.974;13.826;2023-07-29T03:19:49;15.70;99.90
30250;DHT22;17064;47.974;13.826;2023-07-29T03:24:50;15.70;99.90
30250;DHT22;17064;47.974;13.826;2023-07-29T03:29:51;15.60;99.90
30250;DHT22;17064;47.974;13.826;2023-07-29T03:34:51;15.50;99.90
30250;DHT22;17064;47.974;13.826;2023-07-29T03:39:52;15.40;99.90
30250;DHT22;17064;47.974;13.826;2023-07-29T03:44:53;15.40;99.90
30250;DHT22;17064;47.974;13.826;2023-07-29T03:49:53;15.40;99.90
30250;DHT22;17064;47.974;13.826;2023-07-29T03:54:54;15.30;99.90
30250;DHT22;17064;47.974;13.826;2023-07-29T03:59:55;15.30;99.90
30250;DHT22;17064;47.974;13.826;2023-07-29T04:04:55;15.30;99.90
30250;DHT22;17064;47.974;13.826;2023-07-29T04:09:56;15.20;99.90
30250;DHT22;17064;47.974;13.826;2023-07-29T04:14:57;15.20;99.90
30250;DHT22;17064;47.974;13.826;2023-07-29T04:19:57;15.20;99.90
30250;DHT22;17064;47.974;13.826;2023-07-29T04:24:58;15.20;99.90
30250;DHT22;17064;47.974;13.826;2023-07-29T04:29:59;15.20;99.90
30250;DHT22;17064;47.974;13.826;2023-07-29T04:35:00;15.20;99.90
30250;DHT22;17064;47.974;13.826;2023-07-29T04:40:01;15.30;99.90
30250;DHT22;17064;47.974;13.826;2023-07-29T04:45:01;15.40;99.90
30250;DHT22;17064;47.974;13.826;2023-07-29T04:50:02;15.60;99.90
30250;DHT22;17064;47.974;13.826;2023-07-29T04:55:03;15.80;99.90
30250;DHT22;17064;47.974;13.826;2023-07-29T05:00:04;16.00;99.90
30250;DHT22;17064;47.974;13.826;2023-07-29T05:05:06;16.20;99.90
30250;DHT22;17064;47.974;13.826;2023-07-29T05:10:07;16.40;99.90
30250;DHT22;17064;47.974;13.826;2023-07-29T05:15:08;16.60;99.90
30250;DHT22;17064;47.974;13.826;2023-07-29T05:20:09;16.80;99.90
30250;DHT22;17064;47.974;13.826;2023-07-29T05:25:10;17.00;99.90
30250;DHT22;17064;47.974;13.826;2023-07-29T05:30:10;17.10;99.90
30250;DHT22;17064;47.974;13.826;2023-07-29T05:35:11;17.30;99.90
30250;DHT22;17064;47.974;13.826;2023-07-29T05:40:12;17.50;99.90
30250;DHT22;17064;47.974;13.826;2023-07-29T05:45:12;17.70;99.90
30250;DHT22;17064;47.974;13.826;2023-07-29T05:50:13;17.90;99.90
30250;DHT22;17064;47.974;13.826;2023-07-29T05:55:14;17.80;99.90
30250;DHT22;17064;47.974;13.826;2023-07-29T06:00:15;17.80;99.90
30250;DHT22;17064;47.974;13.826;2023-07-29T06:05:15;17.80;99.90
30250;DHT22;17064;47.974;13.826;2023-07-29T06:10:16;17.80;99.90
30250;DHT22;17064;47.974;13.826;2023-07-29T06:15:19;17.90;99.90
30250;DHT22;17064;47.974;13.826;2023-07-29T06:20:23;18.10;99.90
30250;DHT22;17064;47.974;13.826;2023-07-29T06:25:23;18.40;99.90
30250;DHT22;17064;47.974;13.826;2023-07-29T06:30:24;18.60;99.90
30250;DHT22;17064;47.974;13.826;2023-07-29T06:35:25;18.90;99.90
30250;DHT22;17064;47.974;13.826;2023-07-29T06:40:25;19.20;99.90
30250;DHT22;17064;47.974;13.826;2023-07-29T06:45:26;19.40;99.90
30250;DHT22;17064;47.974;13.826;2023-07-29T06:50:27;19.70;99.90
30250;DHT22;17064;47.974;13.826;2023-07-29T06:55:28;19.90;99.90
30250;DHT22;17064;47.974;13.826;2023-07-29T07:00:28;20.20;99.90
30250;DHT22;17064;47.974;13.826;2023-07-29T07:05:29;20.50;99.90
30250;DHT22;17064;47.974;13.826;2023-07-29T07:10:30;20.70;99.90
30250;DHT22;17064;47.974;13.826;2023-07-29T07:15:30;21.00;99.90
30250;DHT22;17064;47.974;13.826;2023-07-29T07:20:32;21.30;99.90
30250;DHT22;17064;47.974;13.826;2023-07-29T07:25:33;21.60;99.90
30250;DHT22;17064;47.974;13.826;2023-07-29T07:30:33;21.80;99.90
30250;DHT22;17064;47.974;13.826;2023-07-29T07:35:34;22.00;99.90
30250;DHT22;17064;47.974;13.826;2023-07-29T07:40:35;22.30;99.90
30250;DHT22;17064;47.974;13.826;2023-07-29T07:45:36;22.80;99.90
30250;DHT22;17064;47.974;13.826;2023-07-29T07:50:37;23.10;99.90
30250;DHT22;17064;47.974;13.826;2023-07-29T07:55:38;23.40;99.90
30250;DHT22;17064;47.974;13.826;2023-07-29T08:00:38;23.40;99.90
30250;DHT22;17064;47.974;13.826;2023-07-29T08:05:39;23.40;99.90
30250;DHT22;17064;47.974;13.826;2023-07-29T08:10:39;23.70;99.90
30250;DHT22;17064;47.974;13.826;2023-07-29T08:15:40;24.00;99.90
30250;DHT22;17064;47.974;13.826;2023-07-29T08:20:51;24.20;99.90
30250;DHT22;17064;47.974;13.826;2023-07-29T08:25:56;24.30;99.90
30250;DHT22;17064;47.974;13.826;2023-07-29T08:31:01;24.60;99.90
30250;DHT22;17064;47.974;13.826;2023-07-29T08:36:15;24.90;99.90
30250;DHT22;17064;47.974;13.826;2023-07-29T08:41:19;25.10;99.90
30250;DHT22;17064;47.974;13.826;2023-07-29T08:46:22;25.50;99.90
30250;DHT22;17064;47.974;13.826;2023-07-29T08:51:23;25.80;99.90
30250;DHT22;17064;47.974;13.826;2023-07-29T08:56:24;26.10;98.00
30250;DHT22;17064;47.974;13.826;2023-07-29T09:01:25;25.90;97.70
30250;DHT22;17064;47.974;13.826;2023-07-29T09:06:26;26.10;99.20
30250;DHT22;17064;47.974;13.826;2023-07-29T09:11:28;26.50;98.30
30250;DHT22;17064;47.974;13.826;2023-07-29T09:16:29;26.30;93.90
30250;DHT22;17064;47.974;13.826;2023-07-29T09:21:29;25.60;96.40
30250;DHT22;17064;47.974;13.826;2023-07-29T09:26:30;25.10;98.90
30250;DHT22;17064;47.974;13.826;2023-07-29T09:31:31;24.70;98.40
30250;DHT22;17064;47.974;13.826;2023-07-29T09:36:33;24.20;99.90
30250;DHT22;17064;47.974;13.826;2023-07-29T09:41:34;23.90;99.90
30250;DHT22;17064;47.974;13.826;2023-07-29T09:46:36;23.90;99.90
30250;DHT22;17064;47.974;13.826;2023-07-29T09:51:38;24.10;99.90
30250;DHT22;17064;47.974;13.826;2023-07-29T09:56:42;24.30;99.90
30250;DHT22;17064;47.974;13.826;2023-07-29T10:01:45;24.20;99.90
30250;DHT22;17064;47.974;13.826;2023-07-29T10:06:46;24.00;99.90
30250;DHT22;17064;47.974;13.826;2023-07-29T10:11:47;23.90;99.90
30250;DHT22;17064;47.974;13.826;2023-07-29T10:16:50;23.70;99.90
30250;DHT22;17064;47.974;13.826;2023-07-29T10:21:52;23.50;99.90
30250;DHT22;17064;47.974;13.826;2023-07-29T10:27:00;23.20;99.90
30250;DHT22;17064;47.974;13.826;2023-07-29T10:32:02;22.90;99.90
30250;DHT22;17064;47.974;13.826;2023-07-29T10:37:06;22.70;99.90
30250;DHT22;17064;47.974;13.826;2023-07-29T10:47:29;22.40;99.90
30250;DHT22;17064;47.974;13.826;2023-07-29T10:57:39;21.80;99.90
30250;DHT22;17064;47.974;13.826;2023-07-29T11:02:41;21.40;99.90
30250;DHT22;17064;47.974;13.826;2023-07-29T11:07:47;21.20;99.90
30250;DHT22;17064;47.974;13.826;2023-07-29T11:12:49;20.90;99.90
30250;DHT22;17064;47.974;13.826;2023-07-29T11:22:57;20.60;99.90
30250;DHT22;17064;47.974;13.826;2023-07-29T11:27:59;20.60;99.90
30250;DHT22;17064;47.974;13.826;2023-07-29T11:33:00;20.90;99.90
30250;DHT22;17064;47.974;13.826;2023-07-29T11:38:00;21.10;99.90
30250;DHT22;17064;47.974;13.826;2023-07-29T11:43:01;21.50;99.90
30250;DHT22;17064;47.974;13.826;2023-07-29T11:48:02;21.70;99.90
30250;DHT22;17064;47.974;13.826;2023-07-29T11:53:03;22.00;99.90
30250;DHT22;17064;47.974;13.826;2023-07-29T11:58:04;22.50;99.90
30250;DHT22;17064;47.974;13.826;2023-07-29T12:03:05;22.80;99.90
30250;DHT22;17064;47.974;13.826;2023-07-29T12:08:07;23.20;99.90
30250;DHT22;17064;47.974;13.826;2023-07-29T12:13:08;23.60;99.90
30250;DHT22;17064;47.974;13.826;2023-07-29T12:18:09;23.90;99.90
30250;DHT22;17064;47.974;13.826;2023-07-29T12:23:10;24.20;99.90
30250;DHT22;17064;47.974;13.826;2023-07-29T12:28:11;24.50;99.90
30250;DHT22;17064;47.974;13.826;2023-07-29T12:33:11;24.60;99.90
30250;DHT22;17064;47.974;13.826;2023-07-29T12:38:29;24.70;99.90
30250;DHT22;17064;47.974;13.826;2023-07-29T12:43:30;25.00;99.90
30250;DHT22;17064;47.974;13.826;2023-07-29T12:48:31;25.10;99.90
30250;DHT22;17064;47.974;13.826;2023-07-29T12:53:31;25.20;99.90
30250;DHT22;17064;47.974;13.826;2023-07-29T12:58:32;25.40;99.90
30250;DHT22;17064;47.974;13.826;2023-07-29T13:03:33;25.70;99.90
30250;DHT22;17064;47.974;13.826;2023-07-29T13:08:33;25.80;99.90
30250;DHT22;17064;47.974;13.826;2023-07-29T13:13:34;25.80;99.90
30250;DHT22;17064;47.974;13.826;2023-07-29T13:18:35;25.80;99.90
30250;DHT22;17064;47.974;13.826;2023-07-29T13:23:35;25.60;99.90
30250;DHT22;17064;47.974;13.826;2023-07-29T13:28:36;25.40;99.90
30250;DHT22;17064;47.974;13.826;2023-07-29T13:33:37;24.70;97.10
30250;DHT22;17064;47.974;13.826;2023-07-29T13:38:38;23.30;99.80
30250;DHT22;17064;47.974;13.826;2023-07-29T13:43:38;22.60;99.90
30250;DHT22;17064;47.974;13.826;2023-07-29T13:48:39;22.30;99.90
30250;DHT22;17064;47.974;13.826;2023-07-29T13:53:39;22.30;99.90
30250;DHT22;17064;47.974;13.826;2023-07-29T13:58:40;22.50;99.90
30250;DHT22;17064;47.974;13.826;2023-07-29T14:03:41;22.60;99.90
30250;DHT22;17064;47.974;13.826;2023-07-29T14:08:42;22.60;99.90
30250;DHT22;17064;47.974;13.826;2023-07-29T14:13:42;22.50;99.90
30250;DHT22;17064;47.974;13.826;2023-07-29T14:18:43;22.40;99.90
30250;DHT22;17064;47.974;13.826;2023-07-29T14:23:44;22.30;99.90
30250;DHT22;17064;47.974;13.826;2023-07-29T14:28:44;22.20;99.90
30250;DHT22;17064;47.974;13.826;2023-07-29T14:33:45;22.10;99.90
30250;DHT22;17064;47.974;13.826;2023-07-29T14:38:46;22.10;99.90
30250;DHT22;17064;47.974;13.826;2023-07-29T14:43:46;22.10;99.90
30250;DHT22;17064;47.974;13.826;2023-07-29T14:48:47;22.00;99.90
30250;DHT22;17064;47.974;13.826;2023-07-29T14:53:48;21.90;99.90
30250;DHT22;17064;47.974;13.826;2023-07-29T14:58:48;21.80;99.90
30250;DHT22;17064;47.974;13.826;2023-07-29T15:03:50;21.80;99.90
30250;DHT22;17064;47.974;13.826;2023-07-29T15:08:51;21.70;99.90
30250;DHT22;17064;47.974;13.826;2023-07-29T15:13:52;21.70;99.90
30250;DHT22;17064;47.974;13.826;2023-07-29T15:18:52;21.70;99.90
30250;DHT22;17064;47.974;13.826;2023-07-29T15:23:53;21.70;99.90
30250;DHT22;17064;47.974;13.826;2023-07-29T15:28:54;21.80;99.90
30250;DHT22;17064;47.974;13.826;2023-07-29T15:33:55;21.80;99.90
30250;DHT22;17064;47.974;13.826;2023-07-29T15:38:55;21.80;99.90
30250;DHT22;17064;47.974;13.826;2023-07-29T15:43:59;21.60;99.90
30250;DHT22;17064;47.974;13.826;2023-07-29T15:48:59;21.60;99.90
30250;DHT22;17064;47.974;13.826;2023-07-29T15:54:00;21.50;99.90
30250;DHT22;17064;47.974;13.826;2023-07-29T15:59:01;21.40;99.90
30250;DHT22;17064;47.974;13.826;2023-07-29T16:04:02;21.40;99.90
30250;DHT22;17064;47.974;13.826;2023-07-29T16:09:03;21.40;99.90
30250;DHT22;17064;47.974;13.826;2023-07-29T16:14:06;21.50;99.90
30250;DHT22;17064;47.974;13.826;2023-07-29T16:19:07;21.50;99.90
30250;DHT22;17064;47.974;13.826;2023-07-29T16:24:09;21.60;99.90
30250;DHT22;17064;47.974;13.826;2023-07-29T16:29:10;21.50;99.90
30250;DHT22;17064;47.974;13.826;2023-07-29T16:34:11;21.40;99.90
30250;DHT22;17064;47.974;13.826;2023-07-29T16:39:11;21.30;99.90
30250;DHT22;17064;47.974;13.826;2023-07-29T16:44:12;21.20;99.90
30250;DHT22;17064;47.974;13.826;2023-07-29T16:49:12;21.10;99.90
30250;DHT22;17064;47.974;13.826;2023-07-29T16:54:13;21.00;99.90
30250;DHT22;17064;47.974;13.826;2023-07-29T16:59:18;21.00;99.90
30250;DHT22;17064;47.974;13.826;2023-07-29T17:04:18;20.90;99.90
30250;DHT22;17064;47.974;13.826;2023-07-29T17:09:19;20.80;99.90
30250;DHT22;17064;47.974;13.826;2023-07-29T17:14:20;20.80;99.90
30250;DHT22;17064;47.974;13.826;2023-07-29T17:19:23;20.60;99.90
30250;DHT22;17064;47.974;13.826;2023-07-29T17:24:24;20.40;99.90
30250;DHT22;17064;47.974;13.826;2023-07-29T17:29:25;20.20;99.90
30250;DHT22;17064;47.974;13.826;2023-07-29T17:34:26;20.00;99.90
30250;DHT22;17064;47.974;13.826;2023-07-29T17:39:27;19.90;99.90
30250;DHT22;17064;47.974;13.826;2023-07-29T17:44:27;19.70;99.90
30250;DHT22;17064;47.974;13.826;2023-07-29T17:49:28;19.60;99.90
30250;DHT22;17064;47.974;13.826;2023-07-29T17:54:29;19.60;99.90
30250;DHT22;17064;47.974;13.826;2023-07-29T17:59:30;19.50;99.90
30250;DHT22;17064;47.974;13.826;2023-07-29T18:04:32;19.50;99.90
30250;DHT22;17064;47.974;13.826;2023-07-29T18:09:33;19.40;99.90
30250;DHT22;17064;47.974;13.826;2023-07-29T18:14:33;19.40;99.90
30250;DHT22;17064;47.974;13.826;2023-07-29T18:19:34;19.30;99.90
30250;DHT22;17064;47.974;13.826;2023-07-29T18:24:41;19.30;99.90
30250;DHT22;17064;47.974;13.826;2023-07-29T18:29:42;19.30;99.90
30250;DHT22;17064;47.974;13.826;2023-07-29T18:34:43;19.30;99.90
30250;DHT22;17064;47.974;13.826;2023-07-29T18:39:43;19.30;99.90
30250;DHT22;17064;47.974;13.826;2023-07-29T18:44:44;19.20;99.90
30250;DHT22;17064;47.974;13.826;2023-07-29T18:49:45;19.20;99.90
30250;DHT22;17064;47.974;13.826;2023-07-29T18:54:46;19.20;99.90
30250;DHT22;17064;47.974;13.826;2023-07-29T18:59:47;19.10;99.90
30250;DHT22;17064;47.974;13.826;2023-07-29T19:04:48;19.00;99.90
30250;DHT22;17064;47.974;13.826;2023-07-29T19:09:50;19.00;99.90
30250;DHT22;17064;47.974;13.826;2023-07-29T19:14:54;19.00;99.90
30250;DHT22;17064;47.974;13.826;2023-07-29T19:19:55;18.90;99.90
30250;DHT22;17064;47.974;13.826;2023-07-29T19:24:56;18.90;99.90
30250;DHT22;17064;47.974;13.826;2023-07-29T19:29:57;18.80;99.90
30250;DHT22;17064;47.974;13.826;2023-07-29T19:34:58;18.80;99.90
30250;DHT22;17064;47.974;13.826;2023-07-29T19:39:59;18.70;99.90
30250;DHT22;17064;47.974;13.826;2023-07-29T19:45:00;18.60;99.90
30250;DHT22;17064;47.974;13.826;2023-07-29T19:50:02;18.60;99.90
30250;DHT22;17064;47.974;13.826;2023-07-29T19:55:03;18.60;99.90
30250;DHT22;17064;47.974;13.826;2023-07-29T20:00:05;18.60;99.90
30250;DHT22;17064;47.974;13.826;2023-07-29T20:05:06;18.60;99.90
30250;DHT22;17064;47.974;13.826;2023-07-29T20:10:08;18.70;99.90
30250;DHT22;17064;47.974;13.826;2023-07-29T20:15:09;18.70;99.90
30250;DHT22;17064;47.974;13.826;2023-07-29T20:20:11;18.70;99.90
30250;DHT22;17064;47.974;13.826;2023-07-29T20:25:12;18.60;99.90
30250;DHT22;17064;47.974;13.826;2023-07-29T20:30:13;18.60;99.90
30250;DHT22;17064;47.974;13.826;2023-07-29T20:35:14;18.60;99.90
30250;DHT22;17064;47.974;13.826;2023-07-29T20:40:15;18.60;99.90
30250;DHT22;17064;47.974;13.826;2023-07-29T20:45:15;18.60;99.90
30250;DHT22;17064;47.974;13.826;2023-07-29T20:50:16;18.60;99.90
30250;DHT22;17064;47.974;13.826;2023-07-29T20:55:17;18.60;99.90
30250;DHT22;17064;47.974;13.826;2023-07-29T21:00:18;18.70;99.90
30250;DHT22;17064;47.974;13.826;2023-07-29T21:05:19;18.70;99.90
30250;DHT22;17064;47.974;13.826;2023-07-29T21:10:19;18.60;99.90
30250;DHT22;17064;47.974;13.826;2023-07-29T21:15:20;18.60;99.90
30250;DHT22;17064;47.974;13.826;2023-07-29T21:20:21;18.60;99.90
30250;DHT22;17064;47.974;13.826;2023-07-29T21:25:22;18.60;99.90
30250;DHT22;17064;47.974;13.826;2023-07-29T21:30:22;18.50;99.90
30250;DHT22;17064;47.974;13.826;2023-07-29T21:35:23;18.50;99.90
30250;DHT22;17064;47.974;13.826;2023-07-29T21:40:24;18.50;99.90
30250;DHT22;17064;47.974;13.826;2023-07-29T21:45:24;18.50;99.90
30250;DHT22;17064;47.974;13.826;2023-07-29T21:50:25;18.50;99.90
30250;DHT22;17064;47.974;13.826;2023-07-29T21:55:26;18.50;99.90
30250;DHT22;17064;47.974;13.826;2023-07-29T22:00:26;18.40;99.90
30250;DHT22;17064;47.974;13.826;2023-07-29T22:05:27;18.40;99.90
30250;DHT22;17064;47.974;13.826;2023-07-29T22:10:28;18.40;99.90
30250;DHT22;17064;47.974;13.826;2023-07-29T22:15:29;18.40;99.90
30250;DHT22;17064;47.974;13.826;2023-07-29T22:20:29;18.40;99.90
30250;DHT22;17064;47.974;13.826;2023-07-29T22:25:30;18.40;99.90
30250;DHT22;17064;47.974;13.826;2023-07-29T22:30:35;18.40;99.90
30250;DHT22;17064;47.974;13.826;2023-07-29T22:35:36;18.40;99.90
30250;DHT22;17064;47.974;13.826;2023-07-29T22:40:37;18.40;99.90
30250;DHT22;17064;47.974;13.826;2023-07-29T22:45:38;18.50;99.90
30250;DHT22;17064;47.974;13.826;2023-07-29T22:50:38;18.50;99.90
30250;DHT22;17064;47.974;13.826;2023-07-29T22:55:41;18.50;99.90
30250;DHT22;17064;47.974;13.826;2023-07-29T23:00:41;18.50;99.90
30250;DHT22;17064;47.974;13.826;2023-07-29T23:05:43;18.50;99.90
30250;DHT22;17064;47.974;13.826;2023-07-29T23:10:44;18.50;99.90
30250;DHT22;17064;47.974;13.826;2023-07-29T23:15:45;18.40;99.90
30250;DHT22;17064;47.974;13.826;2023-07-29T23:20:45;18.50;99.90
30250;DHT22;17064;47.974;13.826;2023-07-29T23:25:46;18.60;99.90
30250;DHT22;17064;47.974;13.826;2023-07-29T23:30:47;18.70;99.90
30250;DHT22;17064;47.974;13.826;2023-07-29T23:35:48;18.80;99.90
30250;DHT22;17064;47.974;13.826;2023-07-29T23:40:48;18.70;99.90
30250;DHT22;17064;47.974;13.826;2023-07-29T23:45:49;18.70;99.90
30250;DHT22;17064;47.974;13.826;2023-07-29T23:50:50;18.70;99.90
30250;DHT22;17064;47.974;13.826;2023-07-29T23:55:50;18.70;99.90
